createdAt,value
2022-12-03T00:03:19.216Z,38.35
2022-12-03T00:08:27.139Z,43.53
2022-12-03T00:13:32.530Z,31.52
2022-12-03T00:16:06.049Z,41.97
2022-12-03T00:18:41.251Z,42.42
2022-12-03T00:21:15.481Z,43.10
2022-12-03T00:23:48.178Z,45.03
2022-12-03T00:26:20.999Z,46.67
2022-12-03T00:28:57.767Z,42.38
2022-12-03T00:31:30.658Z,44.30
2022-12-03T00:36:37.474Z,40.83
2022-12-03T00:39:10.569Z,40.45
2022-12-03T00:41:44.023Z,47.00
2022-12-03T00:44:17.099Z,43.28
2022-12-03T00:46:50.223Z,44.78
2022-12-03T00:49:23.083Z,48.58
2022-12-03T00:51:57.307Z,47.47
2022-12-03T00:54:32.087Z,48.42
2022-12-03T00:57:05.184Z,44.67
2022-12-03T00:59:38.063Z,43.72
2022-12-03T01:02:12.466Z,51.15
2022-12-03T01:04:45.358Z,45.33
2022-12-03T01:07:19.653Z,49.63
2022-12-03T01:09:55.637Z,43.55
2022-12-03T01:15:01.199Z,44.40
2022-12-03T01:17:34.142Z,45.72
2022-12-03T01:20:09.062Z,45.80
2022-12-03T01:22:43.329Z,46.22
2022-12-03T01:25:16.316Z,45.47
2022-12-03T01:30:23.521Z,45.50
2022-12-03T01:32:55.594Z,44.63
2022-12-03T01:35:31.168Z,44.45
2022-12-03T01:38:06.420Z,47.80
2022-12-03T01:40:39.782Z,43.38
2022-12-03T01:43:12.797Z,46.08
2022-12-03T01:45:46.255Z,49.78
2022-12-03T01:48:19.614Z,47.88
2022-12-03T01:50:53.015Z,47.30
2022-12-03T01:53:27.785Z,40.33
2022-12-03T01:56:00.848Z,47.75
2022-12-03T01:58:35.653Z,42.20
2022-12-03T02:01:16.626Z,50.42
2022-12-03T02:03:49.747Z,49.42
2022-12-03T02:06:31.909Z,41.70
2022-12-03T02:09:08.576Z,44.00
2022-12-03T02:11:45.732Z,44.38
2022-12-03T02:14:21.824Z,45.17
2022-12-03T02:16:54.707Z,45.58
2022-12-03T02:19:30.489Z,40.70
2022-12-03T02:22:13.492Z,44.80
2022-12-03T02:24:53.755Z,47.17
2022-12-03T02:27:29.411Z,45.20
2022-12-03T02:30:02.280Z,44.00
2022-12-03T02:32:35.224Z,46.88
2022-12-03T02:37:49.225Z,49.70
2022-12-03T02:40:25.640Z,44.17
2022-12-03T02:43:02.744Z,48.83
2022-12-03T02:45:39.339Z,49.40
2022-12-03T02:48:16.045Z,48.63
2022-12-03T02:50:52.469Z,44.90
2022-12-03T02:53:30.852Z,53.10
2022-12-03T02:56:04.906Z,46.05
2022-12-03T02:58:39.997Z,46.10
2022-12-03T03:01:15.518Z,48.90
2022-12-03T03:03:49.658Z,52.10
2022-12-03T03:06:23.010Z,48.70
2022-12-03T03:08:56.119Z,47.90
2022-12-03T03:14:04.138Z,37.08
2022-12-03T03:16:37.356Z,49.78
2022-12-03T03:19:10.246Z,49.50
2022-12-03T03:21:43.303Z,47.15
2022-12-03T03:24:19.167Z,49.08
2022-12-03T03:26:53.952Z,50.67
2022-12-03T03:29:28.369Z,46.22
2022-12-03T03:32:02.778Z,48.67
2022-12-03T03:34:35.779Z,41.67
2022-12-03T03:37:11.888Z,48.33
2022-12-03T03:39:44.890Z,51.75
2022-12-03T03:44:53.246Z,46.35
2022-12-03T03:47:26.759Z,45.30
2022-12-03T03:50:00.927Z,47.08
2022-12-03T03:52:33.974Z,45.97
2022-12-03T03:55:08.325Z,43.58
2022-12-03T03:57:41.487Z,48.78
2022-12-03T04:00:16.905Z,45.50
2022-12-03T04:02:50.089Z,45.05
2022-12-03T04:05:25.310Z,43.55
2022-12-03T04:07:58.744Z,47.20
2022-12-03T04:10:49.288Z,43.20
2022-12-03T04:13:22.376Z,44.78
2022-12-03T04:18:44.378Z,44.38
2022-12-03T04:21:36.836Z,44.50
2022-12-03T04:24:12.050Z,44.20
2022-12-03T04:27:02.944Z,41.63
2022-12-03T04:29:35.967Z,44.78
2022-12-03T04:35:18.712Z,45.80
2022-12-03T04:37:51.521Z,44.75
2022-12-03T04:40:42.111Z,42.55
2022-12-03T04:43:15.016Z,40.97
2022-12-03T04:45:49.457Z,42.35
2022-12-03T04:48:24.308Z,43.92
2022-12-03T04:50:57.314Z,42.75
2022-12-03T04:56:05.139Z,44.40
2022-12-03T04:58:41.159Z,41.90
2022-12-03T05:01:14.012Z,49.60
2022-12-03T05:03:48.415Z,48.67
2022-12-03T05:06:21.399Z,44.15
2022-12-03T05:08:54.283Z,46.50
2022-12-03T05:13:59.767Z,32.60
2022-12-03T05:16:36.825Z,47.83
2022-12-03T05:19:13.922Z,50.63
2022-12-03T05:21:45.947Z,46.03
2022-12-03T05:24:20.575Z,47.58
2022-12-03T05:29:28.284Z,43.50
2022-12-03T05:32:01.037Z,41.97
2022-12-03T05:34:35.348Z,46.10
2022-12-03T05:37:08.367Z,46.85
2022-12-03T05:42:31.107Z,46.30
2022-12-03T05:45:04.175Z,45.33
2022-12-03T05:47:37.040Z,47.65
2022-12-03T05:50:11.792Z,44.13
2022-12-03T05:52:44.861Z,44.92
2022-12-03T05:57:53.044Z,49.90
2022-12-03T06:00:28.464Z,46.63
2022-12-03T06:03:01.502Z,44.55
2022-12-03T06:05:38.070Z,49.60
2022-12-03T06:08:13.813Z,46.80
2022-12-03T06:10:52.873Z,47.42
2022-12-03T06:13:28.563Z,46.70
2022-12-03T06:16:01.553Z,46.08
2022-12-03T06:21:08.741Z,35.92
2022-12-03T06:23:44.823Z,45.28
2022-12-03T06:26:17.682Z,49.20
2022-12-03T06:28:50.492Z,47.00
2022-12-03T06:31:23.548Z,46.83
2022-12-03T06:36:33.199Z,44.22
2022-12-03T06:39:06.119Z,46.50
2022-12-03T06:44:12.539Z,47.13
2022-12-03T06:46:45.888Z,46.42
2022-12-03T06:49:18.913Z,48.03
2022-12-03T06:54:30.962Z,41.53
2022-12-03T06:57:04.257Z,42.20
2022-12-03T06:59:37.546Z,43.83
2022-12-03T07:02:11.777Z,47.35
2022-12-03T07:04:46.439Z,46.80
2022-12-03T07:07:20.916Z,44.08
2022-12-03T07:09:53.810Z,44.78
2022-12-03T07:12:27.011Z,42.47
2022-12-03T07:15:00.242Z,46.50
2022-12-03T07:17:38.546Z,41.95
2022-12-03T07:20:12.788Z,44.63
2022-12-03T07:22:48.910Z,51.33
2022-12-03T07:25:23.724Z,43.65
2022-12-03T07:27:57.254Z,46.70
2022-12-03T07:30:30.838Z,44.08
2022-12-03T07:33:03.911Z,46.50
2022-12-03T07:35:38.451Z,48.90
2022-12-03T07:38:21.533Z,46.05
2022-12-03T07:40:58.148Z,44.40
2022-12-03T07:43:34.165Z,45.50
2022-12-03T07:46:11.947Z,44.35
2022-12-03T07:48:49.806Z,49.63
2022-12-03T07:51:32.482Z,47.15
2022-12-03T07:54:12.514Z,47.13
2022-12-03T07:56:46.063Z,47.33
2022-12-03T07:59:20.265Z,45.08
2022-12-03T08:01:53.587Z,46.08
2022-12-03T08:04:28.438Z,51.15
2022-12-03T08:07:06.580Z,51.35
2022-12-03T08:09:42.627Z,51.55
2022-12-03T08:12:19.156Z,49.80
2022-12-03T08:14:52.917Z,50.10
2022-12-03T08:17:32.516Z,51.28
2022-12-03T08:20:12.528Z,53.83
2022-12-03T08:22:50.919Z,48.33
2022-12-03T08:25:27.887Z,57.25
2022-12-03T08:28:08.736Z,55.45
2022-12-03T08:30:42.511Z,51.45
2022-12-03T08:33:21.707Z,54.20
2022-12-03T08:35:55.395Z,59.28
2022-12-03T08:38:30.633Z,51.05
2022-12-03T08:41:13.852Z,55.20
2022-12-03T08:43:46.926Z,54.30
2022-12-03T08:46:23.726Z,56.30
2022-12-03T08:48:56.771Z,55.80
2022-12-03T08:54:12.800Z,42.80
2022-12-03T08:59:29.377Z,58.70
2022-12-03T09:02:02.627Z,54.78
2022-12-03T09:04:39.629Z,56.17
2022-12-03T09:07:12.957Z,54.47
2022-12-03T09:09:45.897Z,56.10
2022-12-03T09:12:20.496Z,52.95
2022-12-03T09:14:54.281Z,52.88
2022-12-03T09:17:27.266Z,54.28
2022-12-03T09:20:00.188Z,50.58
2022-12-03T09:25:06.757Z,55.13
2022-12-03T09:27:41.201Z,52.65
2022-12-03T09:30:14.388Z,55.03
2022-12-03T09:32:47.478Z,57.90
2022-12-03T09:37:53.140Z,55.70
2022-12-03T09:40:30.116Z,58.97
2022-12-03T09:43:05.552Z,56.78
2022-12-03T09:45:38.678Z,52.72
2022-12-03T09:48:18.891Z,53.45
2022-12-03T09:50:57.415Z,46.08
2022-12-03T09:53:30.791Z,55.38
2022-12-03T09:56:03.919Z,49.20
2022-12-03T09:58:41.282Z,48.97
2022-12-03T10:01:16.260Z,53.47
2022-12-03T10:03:54.720Z,54.22
2022-12-03T10:06:27.621Z,50.53
2022-12-03T10:09:00.540Z,53.83
2022-12-03T10:14:24.108Z,53.30
2022-12-03T10:17:00.191Z,51.50
2022-12-03T10:19:37.651Z,53.78
2022-12-03T10:22:10.791Z,53.25
2022-12-03T10:24:44.846Z,54.28
2022-12-03T10:27:25.497Z,54.03
2022-12-03T10:30:02.058Z,54.17
2022-12-03T10:32:42.861Z,52.60
2022-12-03T10:35:20.747Z,51.53
2022-12-03T10:38:03.161Z,57.15
2022-12-03T10:40:37.770Z,46.50
2022-12-03T10:43:16.003Z,51.15
2022-12-03T10:45:52.041Z,56.53
2022-12-03T10:48:27.551Z,59.40
2022-12-03T10:51:04.875Z,56.03
2022-12-03T10:53:39.667Z,52.45
2022-12-03T10:56:19.213Z,57.95
2022-12-03T10:58:53.054Z,58.20
2022-12-03T11:01:27.959Z,55.17
2022-12-03T11:04:06.280Z,59.15
2022-12-03T11:06:40.329Z,59.33
2022-12-03T11:09:19.249Z,59.63
2022-12-03T11:11:53.291Z,54.38
2022-12-03T11:15:06.456Z,60.88
2022-12-03T11:17:50.498Z,60.13
2022-12-03T11:21:12.591Z,57.45
2022-12-03T11:24:20.802Z,67.80
2022-12-03T11:27:26.953Z,57.80
2022-12-03T11:30:01.937Z,59.47
2022-12-03T11:33:20.886Z,54.35
2022-12-03T11:36:13.547Z,54.72
2022-12-03T11:38:58.238Z,55.28
2022-12-03T11:41:34.286Z,62.85
2022-12-03T11:44:32.662Z,62.70
2022-12-03T11:47:16.240Z,54.67
2022-12-03T11:49:51.101Z,55.17
2022-12-03T11:52:30.689Z,54.40
2022-12-03T11:55:15.440Z,60.22
2022-12-03T11:57:48.569Z,58.10
2022-12-03T12:00:24.063Z,56.90
2022-12-03T12:02:58.961Z,58.15
2022-12-03T12:05:37.387Z,59.88
2022-12-03T12:08:22.061Z,63.30
2022-12-03T12:10:54.879Z,67.10
2022-12-03T12:13:56.820Z,61.97
2022-12-03T12:16:51.465Z,60.28
2022-12-03T12:19:54.515Z,64.70
2022-12-03T12:22:55.374Z,60.33
2022-12-03T12:25:40.358Z,62.33
2022-12-03T12:28:16.416Z,60.90
2022-12-03T12:30:49.683Z,63.85
2022-12-03T12:33:24.334Z,65.55
2022-12-03T12:35:57.442Z,60.20
2022-12-03T12:38:31.646Z,56.83
2022-12-03T12:41:08.499Z,65.07
2022-12-03T12:43:41.806Z,64.40
2022-12-03T12:46:45.926Z,59.55
2022-12-03T12:49:12.228Z,59.28
2022-12-03T12:51:46.571Z,65.68
2022-12-03T12:54:21.109Z,60.08
2022-12-03T12:56:54.470Z,64.93
2022-12-03T12:59:27.442Z,61.72
2022-12-03T13:02:04.597Z,62.10
2022-12-03T13:04:41.447Z,61.63
2022-12-03T13:07:15.108Z,65.15
2022-12-03T13:09:55.750Z,70.18
2022-12-03T13:12:31.004Z,63.53
2022-12-03T13:15:03.741Z,67.68
2022-12-03T13:17:36.562Z,65.07
2022-12-03T13:20:18.914Z,65.13
2022-12-03T13:22:51.760Z,63.30
2022-12-03T13:28:27.257Z,61.30
2022-12-03T13:31:13.724Z,68.72
2022-12-03T13:33:46.603Z,59.53
2022-12-03T13:36:21.297Z,67.30
2022-12-03T13:38:54.488Z,69.55
2022-12-03T13:41:46.623Z,68.13
2022-12-03T13:44:20.362Z,66.43
2022-12-03T13:46:53.219Z,70.85
2022-12-03T13:49:26.206Z,64.07
2022-12-03T13:54:37.113Z,71.85
2022-12-03T13:57:11.269Z,71.55
2022-12-03T13:59:44.079Z,70.40
2022-12-03T14:02:17.201Z,70.55
2022-12-03T14:04:52.148Z,81.90
2022-12-03T14:07:28.211Z,67.28
2022-12-03T14:10:01.014Z,76.82
2022-12-03T14:12:35.527Z,77.63
2022-12-03T14:15:10.894Z,81.30
2022-12-03T14:17:43.794Z,79.30
2022-12-03T14:20:17.298Z,74.13
2022-12-03T14:22:52.009Z,74.72
2022-12-03T14:25:29.111Z,71.47
2022-12-03T14:28:05.660Z,76.00
2022-12-03T14:30:38.533Z,68.90
2022-12-03T14:33:11.361Z,71.28
2022-12-03T14:35:44.244Z,63.58
2022-12-03T14:38:19.145Z,73.70
2022-12-03T14:40:52.481Z,62.75
2022-12-03T14:43:26.489Z,68.20
2022-12-03T14:45:59.473Z,62.50
2022-12-03T14:48:32.415Z,60.58
2022-12-03T14:51:07.727Z,63.08
2022-12-03T14:53:40.707Z,61.22
2022-12-03T14:58:47.732Z,58.35
2022-12-03T15:01:23.933Z,64.93
2022-12-03T15:03:59.976Z,56.42
2022-12-03T15:06:34.773Z,62.45
2022-12-03T15:09:08.183Z,57.72
2022-12-03T15:11:46.137Z,55.30
2022-12-03T15:14:22.160Z,45.83
2022-12-03T15:16:55.903Z,50.20
2022-12-03T15:19:28.943Z,52.45
2022-12-03T15:24:40.233Z,51.28
2022-12-03T15:27:13.417Z,49.88
2022-12-03T15:29:55.924Z,49.45
2022-12-03T15:32:29.368Z,52.97
2022-12-03T15:35:05.497Z,43.63
2022-12-03T15:37:42.266Z,45.22
2022-12-03T15:40:18.882Z,52.13
2022-12-03T15:42:52.531Z,57.05
2022-12-03T15:45:28.605Z,45.33
2022-12-03T15:48:04.269Z,55.03
2022-12-03T15:50:40.285Z,54.20
2022-12-03T15:53:13.641Z,59.80
2022-12-03T15:55:47.419Z,56.55
2022-12-03T15:58:20.702Z,64.88
2022-12-03T16:00:55.669Z,62.58
2022-12-03T16:03:29.193Z,66.20
2022-12-03T16:06:02.417Z,67.55
2022-12-03T16:08:35.782Z,69.28
2022-12-03T16:11:09.923Z,65.93
2022-12-03T16:13:42.848Z,69.18
2022-12-03T16:16:17.157Z,63.42
2022-12-03T16:18:52.955Z,69.35
2022-12-03T16:21:27.258Z,61.58
2022-12-03T16:24:00.669Z,67.80
2022-12-03T16:26:33.995Z,70.03
2022-12-03T16:29:06.945Z,62.08
2022-12-03T16:31:41.725Z,69.25
2022-12-03T16:34:14.675Z,74.97
2022-12-03T16:39:20.900Z,63.92
2022-12-03T16:41:56.462Z,65.07
2022-12-03T16:44:44.851Z,60.65
2022-12-03T16:47:19.463Z,61.80
2022-12-03T16:49:53.028Z,62.75
2022-12-03T16:52:26.201Z,67.05
2022-12-03T16:57:37.625Z,64.00
2022-12-03T17:00:11.811Z,62.80
2022-12-03T17:02:47.484Z,66.32
2022-12-03T17:05:20.597Z,72.50
2022-12-03T17:07:53.875Z,70.18
2022-12-03T17:10:29.232Z,64.55
2022-12-03T17:13:10.541Z,64.30
2022-12-03T17:15:45.212Z,59.15
2022-12-03T17:18:24.050Z,71.57
2022-12-03T17:20:57.407Z,65.28
2022-12-03T17:23:33.125Z,63.13
2022-12-03T17:26:06.170Z,65.38
2022-12-03T17:28:41.096Z,60.78
2022-12-03T17:31:14.431Z,62.83
2022-12-03T17:33:48.654Z,65.22
2022-12-03T17:36:21.571Z,62.83
2022-12-03T17:38:54.585Z,60.67
2022-12-03T17:41:27.503Z,62.35
2022-12-03T17:44:01.245Z,60.03
2022-12-03T17:46:36.509Z,60.70
2022-12-03T17:51:43.568Z,63.97
2022-12-03T17:54:16.291Z,59.65
2022-12-03T17:56:54.875Z,62.42
2022-12-03T17:59:31.573Z,54.80
2022-12-03T18:02:06.257Z,61.22
2022-12-03T18:04:43.660Z,54.58
2022-12-03T18:07:16.487Z,56.40
2022-12-03T18:12:25.396Z,52.45
2022-12-03T18:14:58.654Z,50.15
2022-12-03T18:17:31.784Z,53.45
2022-12-03T18:22:40.373Z,52.78
2022-12-03T18:25:14.461Z,43.95
2022-12-03T18:27:50.190Z,49.60
2022-12-03T18:30:25.792Z,47.30
2022-12-03T18:32:59.141Z,42.83
2022-12-03T18:35:33.508Z,49.50
2022-12-03T18:38:06.348Z,48.53
2022-12-03T18:40:39.700Z,46.80
2022-12-03T18:45:51.579Z,54.13
2022-12-03T18:48:27.345Z,42.00
2022-12-03T18:53:35.761Z,45.65
2022-12-03T18:56:09.161Z,45.22
2022-12-03T18:58:42.029Z,45.13
2022-12-03T19:01:17.495Z,50.15
2022-12-03T19:03:51.491Z,52.03
2022-12-03T19:06:25.724Z,54.08
2022-12-03T19:08:59.226Z,52.67
2022-12-03T19:11:34.094Z,52.17
2022-12-03T19:14:10.760Z,53.00
2022-12-03T19:16:44.596Z,45.42
2022-12-03T19:19:27.298Z,55.70
2022-12-03T19:24:49.911Z,59.20
2022-12-03T19:27:23.309Z,56.28
2022-12-03T19:29:56.517Z,59.72
2022-12-03T19:32:30.074Z,56.65
2022-12-03T19:35:05.497Z,54.35
2022-12-03T19:37:38.985Z,58.90
2022-12-03T19:40:13.943Z,55.30
2022-12-03T19:42:46.807Z,59.83
2022-12-03T19:45:19.727Z,64.88
2022-12-03T19:47:55.850Z,62.30
2022-12-03T19:50:32.175Z,58.35
2022-12-03T19:53:05.107Z,68.15
2022-12-03T19:55:39.291Z,61.58
2022-12-03T19:58:12.231Z,58.70
2022-12-03T20:00:45.046Z,58.13
2022-12-03T20:05:51.923Z,59.80
2022-12-03T20:08:24.838Z,60.47
2022-12-03T20:13:43.687Z,65.38
2022-12-03T20:16:17.537Z,64.88
2022-12-03T20:18:52.040Z,59.85
2022-12-03T20:25:29.101Z,65.75
2022-12-03T20:28:05.981Z,64.68
2022-12-03T20:30:38.950Z,62.50
2022-12-03T20:33:13.712Z,58.45
2022-12-03T20:35:52.702Z,69.95
2022-12-03T20:38:26.987Z,60.83
2022-12-03T20:41:02.625Z,64.00
2022-12-03T20:43:37.634Z,60.70
2022-12-03T20:46:12.603Z,57.22
2022-12-03T20:48:46.650Z,62.60
2022-12-03T20:51:21.790Z,59.40
2022-12-03T20:53:55.386Z,68.93
2022-12-03T20:56:31.455Z,61.38
2022-12-03T20:59:08.228Z,66.13
2022-12-03T21:01:43.038Z,64.50
2022-12-03T21:04:18.000Z,60.60
2022-12-03T21:06:51.117Z,60.10
2022-12-03T21:09:23.884Z,62.38
2022-12-03T21:11:56.751Z,62.15
2022-12-03T21:17:08.770Z,64.72
2022-12-03T21:19:42.149Z,66.95
2022-12-03T21:22:15.052Z,59.47
2022-12-03T21:27:22.201Z,65.95
2022-12-03T21:29:56.899Z,61.58
2022-12-03T21:32:29.791Z,62.45
2022-12-03T21:35:02.638Z,65.97
2022-12-03T21:40:11.891Z,67.50
2022-12-03T21:42:44.646Z,60.60
2022-12-03T21:45:18.980Z,72.68
2022-12-03T21:47:52.143Z,68.82
2022-12-03T21:50:25.691Z,60.72
2022-12-03T21:52:58.557Z,67.50
2022-12-03T21:58:04.409Z,60.78
2022-12-03T22:03:11.814Z,67.28
2022-12-03T22:05:45.178Z,63.95
2022-12-03T22:08:18.372Z,65.70
2022-12-03T22:10:51.273Z,68.85
2022-12-03T22:13:24.082Z,66.80
2022-12-03T22:16:01.105Z,65.28
2022-12-03T22:18:34.944Z,66.05
2022-12-03T22:21:10.272Z,64.88
2022-12-03T22:23:43.585Z,62.28
2022-12-03T22:26:18.139Z,63.80
2022-12-03T22:28:51.844Z,63.90
2022-12-03T22:31:26.206Z,67.90
2022-12-03T22:33:59.220Z,60.83
2022-12-03T22:36:32.477Z,58.55
2022-12-03T22:39:05.566Z,60.92
2022-12-03T22:44:11.568Z,48.08
2022-12-03T22:46:45.782Z,63.83
2022-12-03T22:49:19.027Z,63.67
2022-12-03T22:51:51.988Z,58.45
2022-12-03T22:57:01.084Z,69.07
2022-12-03T22:59:35.940Z,69.45
2022-12-03T23:02:10.310Z,69.80
2022-12-03T23:04:43.165Z,68.57
2022-12-03T23:07:19.487Z,62.75
2022-12-03T23:09:52.534Z,65.80
2022-12-03T23:12:25.503Z,66.45
2022-12-03T23:14:58.356Z,65.40
2022-12-03T23:17:32.666Z,67.93
2022-12-03T23:20:07.657Z,64.65
2022-12-03T23:22:40.844Z,66.07
2022-12-03T23:25:13.801Z,66.72
2022-12-03T23:30:19.683Z,47.95
2022-12-03T23:35:27.276Z,60.35
2022-12-03T23:40:32.827Z,63.65
2022-12-03T23:43:05.628Z,64.03
2022-12-03T23:45:39.153Z,65.10
2022-12-03T23:48:13.455Z,57.45
2022-12-03T23:50:46.367Z,63.08
2022-12-03T23:55:54.325Z,62.53
2022-12-03T23:58:29.933Z,58.17
